sensor_id;sensor_type;location;lat;lon;timestamp;P1;durP1;ratioP1;P2;durP2;ratioP2
27505;SDS011;14939;43.596;1.320;2022-09-27T00:00:16;11.90;;;2.42;;
27505;SDS011;14939;43.596;1.320;2022-09-27T00:02:42;10.85;;;1.98;;
27505;SDS011;14939;43.596;1.320;2022-09-27T00:05:09;8.02;;;1.92;;
27505;SDS011;14939;43.596;1.320;2022-09-27T00:07:34;9.88;;;2.05;;
27505;SDS011;14939;43.596;1.320;2022-09-27T00:10:00;9.23;;;1.88;;
27505;SDS011;14939;43.596;1.320;2022-09-27T00:12:26;9.68;;;2.10;;
27505;SDS011;14939;43.596;1.320;2022-09-27T00:14:52;7.47;;;2.63;;
27505;SDS011;14939;43.596;1.320;2022-09-27T00:17:17;10.35;;;2.80;;
27505;SDS011;14939;43.596;1.320;2022-09-27T00:19:43;7.57;;;3.00;;
27505;SDS011;14939;43.596;1.320;2022-09-27T00:22:09;7.97;;;2.80;;
27505;SDS011;14939;43.596;1.320;2022-09-27T00:24:34;7.78;;;2.60;;
27505;SDS011;14939;43.596;1.320;2022-09-27T00:27:00;9.15;;;2.85;;
27505;SDS011;14939;43.596;1.320;2022-09-27T00:29:26;8.13;;;2.80;;
27505;SDS011;14939;43.596;1.320;2022-09-27T00:31:52;7.50;;;2.50;;
27505;SDS011;14939;43.596;1.320;2022-09-27T00:34:21;11.55;;;2.72;;
27505;SDS011;14939;43.596;1.320;2022-09-27T00:36:48;9.95;;;2.80;;
27505;SDS011;14939;43.596;1.320;2022-09-27T00:39:15;8.10;;;3.03;;
27505;SDS011;14939;43.596;1.320;2022-09-27T00:41:41;10.00;;;3.58;;
27505;SDS011;14939;43.596;1.320;2022-09-27T00:49:31;13.88;;;3.22;;
27505;SDS011;14939;43.596;1.320;2022-09-27T00:52:02;10.52;;;2.90;;
27505;SDS011;14939;43.596;1.320;2022-09-27T00:54:32;7.78;;;2.63;;
27505;SDS011;14939;43.596;1.320;2022-09-27T00:57:00;6.90;;;2.22;;
27505;SDS011;14939;43.596;1.320;2022-09-27T00:59:33;13.07;;;2.78;;
27505;SDS011;14939;43.596;1.320;2022-09-27T01:02:03;14.23;;;3.08;;
27505;SDS011;14939;43.596;1.320;2022-09-27T01:04:30;16.58;;;2.83;;
27505;SDS011;14939;43.596;1.320;2022-09-27T01:06:57;18.33;;;3.20;;
27505;SDS011;14939;43.596;1.320;2022-09-27T01:09:24;17.30;;;2.80;;
27505;SDS011;14939;43.596;1.320;2022-09-27T01:11:53;14.27;;;3.13;;
27505;SDS011;14939;43.596;1.320;2022-09-27T01:34:44;28.25;;;3.95;;
27505;SDS011;14939;43.596;1.320;2022-09-27T01:40:27;26.55;;;5.45;;
27505;SDS011;14939;43.596;1.320;2022-09-27T01:42:59;29.02;;;5.15;;
27505;SDS011;14939;43.596;1.320;2022-09-27T01:48:02;31.35;;;4.32;;
27505;SDS011;14939;43.596;1.320;2022-09-27T01:50:34;25.42;;;4.45;;
27505;SDS011;14939;43.596;1.320;2022-09-27T01:53:09;33.17;;;3.90;;
27505;SDS011;14939;43.596;1.320;2022-09-27T01:55:40;33.47;;;4.72;;
27505;SDS011;14939;43.596;1.320;2022-09-27T01:58:13;31.88;;;4.38;;
27505;SDS011;14939;43.596;1.320;2022-09-27T02:00:43;35.22;;;4.68;;
27505;SDS011;14939;43.596;1.320;2022-09-27T02:03:19;23.33;;;3.90;;
27505;SDS011;14939;43.596;1.320;2022-09-27T02:06:22;31.80;;;4.45;;
27505;SDS011;14939;43.596;1.320;2022-09-27T02:11:13;32.67;;;4.60;;
27505;SDS011;14939;43.596;1.320;2022-09-27T02:25:25;31.40;;;4.15;;
27505;SDS011;14939;43.596;1.320;2022-09-27T02:28:04;36.75;;;4.90;;
27505;SDS011;14939;43.596;1.320;2022-09-27T02:30:47;41.70;;;4.97;;
27505;SDS011;14939;43.596;1.320;2022-09-27T02:33:13;25.65;;;4.32;;
27505;SDS011;14939;43.596;1.320;2022-09-27T02:35:39;41.15;;;5.55;;
27505;SDS011;14939;43.596;1.320;2022-09-27T02:38:04;34.25;;;5.15;;
27505;SDS011;14939;43.596;1.320;2022-09-27T02:40:33;38.20;;;5.07;;
27505;SDS011;14939;43.596;1.320;2022-09-27T02:43:00;40.70;;;4.82;;
27505;SDS011;14939;43.596;1.320;2022-09-27T02:45:53;34.60;;;5.03;;
27505;SDS011;14939;43.596;1.320;2022-09-27T02:57:03;35.22;;;4.95;;
27505;SDS011;14939;43.596;1.320;2022-09-27T03:04:52;30.83;;;4.15;;
27505;SDS011;14939;43.596;1.320;2022-09-27T03:07:19;35.38;;;4.45;;
27505;SDS011;14939;43.596;1.320;2022-09-27T03:09:47;35.05;;;4.25;;
27505;SDS011;14939;43.596;1.320;2022-09-27T03:12:15;28.85;;;4.30;;
27505;SDS011;14939;43.596;1.320;2022-09-27T03:14:49;28.65;;;4.10;;
27505;SDS011;14939;43.596;1.320;2022-09-27T03:17:24;31.52;;;4.50;;
27505;SDS011;14939;43.596;1.320;2022-09-27T03:19:51;33.47;;;5.00;;
27505;SDS011;14939;43.596;1.320;2022-09-27T03:22:17;34.28;;;4.40;;
27505;SDS011;14939;43.596;1.320;2022-09-27T03:24:43;33.78;;;4.53;;
27505;SDS011;14939;43.596;1.320;2022-09-27T03:27:09;31.80;;;4.15;;
27505;SDS011;14939;43.596;1.320;2022-09-27T03:29:35;31.60;;;4.72;;
27505;SDS011;14939;43.596;1.320;2022-09-27T03:32:01;28.10;;;3.85;;
27505;SDS011;14939;43.596;1.320;2022-09-27T03:34:27;35.42;;;4.25;;
27505;SDS011;14939;43.596;1.320;2022-09-27T03:36:53;33.65;;;4.25;;
27505;SDS011;14939;43.596;1.320;2022-09-27T03:39:19;31.85;;;4.18;;
27505;SDS011;14939;43.596;1.320;2022-09-27T03:41:45;28.55;;;3.90;;
27505;SDS011;14939;43.596;1.320;2022-09-27T03:44:11;33.63;;;4.82;;
27505;SDS011;14939;43.596;1.320;2022-09-27T03:46:36;33.05;;;4.60;;
27505;SDS011;14939;43.596;1.320;2022-09-27T03:49:02;33.20;;;4.22;;
27505;SDS011;14939;43.596;1.320;2022-09-27T03:51:28;26.17;;;4.03;;
27505;SDS011;14939;43.596;1.320;2022-09-27T03:53:54;37.20;;;4.90;;
27505;SDS011;14939;43.596;1.320;2022-09-27T03:56:20;27.05;;;3.97;;
27505;SDS011;14939;43.596;1.320;2022-09-27T03:58:46;31.75;;;4.28;;
27505;SDS011;14939;43.596;1.320;2022-09-27T04:01:12;27.13;;;4.28;;
27505;SDS011;14939;43.596;1.320;2022-09-27T04:03:38;28.30;;;4.32;;
27505;SDS011;14939;43.596;1.320;2022-09-27T04:06:04;29.65;;;4.40;;
27505;SDS011;14939;43.596;1.320;2022-09-27T04:08:30;28.80;;;3.92;;
27505;SDS011;14939;43.596;1.320;2022-09-27T04:10:56;31.20;;;3.85;;
27505;SDS011;14939;43.596;1.320;2022-09-27T04:13:21;29.60;;;4.05;;
27505;SDS011;14939;43.596;1.320;2022-09-27T04:15:48;25.40;;;4.03;;
27505;SDS011;14939;43.596;1.320;2022-09-27T04:18:14;28.08;;;4.03;;
27505;SDS011;14939;43.596;1.320;2022-09-27T04:20:39;26.52;;;3.58;;
27505;SDS011;14939;43.596;1.320;2022-09-27T04:23:05;27.45;;;3.80;;
27505;SDS011;14939;43.596;1.320;2022-09-27T04:25:31;27.23;;;4.13;;
27505;SDS011;14939;43.596;1.320;2022-09-27T04:27:57;30.17;;;4.25;;
27505;SDS011;14939;43.596;1.320;2022-09-27T04:30:23;29.63;;;4.00;;
27505;SDS011;14939;43.596;1.320;2022-09-27T04:32:50;27.10;;;3.42;;
27505;SDS011;14939;43.596;1.320;2022-09-27T04:35:16;29.63;;;4.25;;
27505;SDS011;14939;43.596;1.320;2022-09-27T04:38:01;25.10;;;3.60;;
27505;SDS011;14939;43.596;1.320;2022-09-27T04:40:26;28.67;;;4.20;;
27505;SDS011;14939;43.596;1.320;2022-09-27T04:42:52;27.75;;;4.90;;
27505;SDS011;14939;43.596;1.320;2022-09-27T04:45:18;26.00;;;4.18;;
27505;SDS011;14939;43.596;1.320;2022-09-27T04:47:45;30.63;;;4.20;;
27505;SDS011;14939;43.596;1.320;2022-09-27T04:50:12;28.35;;;4.25;;
27505;SDS011;14939;43.596;1.320;2022-09-27T04:52:39;24.58;;;4.20;;
27505;SDS011;14939;43.596;1.320;2022-09-27T04:55:06;31.55;;;4.30;;
27505;SDS011;14939;43.596;1.320;2022-09-27T04:57:32;33.20;;;3.83;;
27505;SDS011;14939;43.596;1.320;2022-09-27T04:59:58;29.60;;;4.72;;
27505;SDS011;14939;43.596;1.320;2022-09-27T05:02:27;24.63;;;3.70;;
27505;SDS011;14939;43.596;1.320;2022-09-27T05:04:54;27.00;;;4.07;;
27505;SDS011;14939;43.596;1.320;2022-09-27T05:07:27;28.77;;;3.63;;
27505;SDS011;14939;43.596;1.320;2022-09-27T05:09:54;30.85;;;3.92;;
27505;SDS011;14939;43.596;1.320;2022-09-27T05:12:20;17.42;;;3.97;;
27505;SDS011;14939;43.596;1.320;2022-09-27T05:14:46;26.08;;;3.42;;
27505;SDS011;14939;43.596;1.320;2022-09-27T05:17:12;23.27;;;3.70;;
27505;SDS011;14939;43.596;1.320;2022-09-27T05:19:38;27.35;;;3.97;;
27505;SDS011;14939;43.596;1.320;2022-09-27T05:22:07;27.30;;;3.85;;
27505;SDS011;14939;43.596;1.320;2022-09-27T05:24:32;28.65;;;3.50;;
27505;SDS011;14939;43.596;1.320;2022-09-27T05:27:00;20.52;;;3.30;;
27505;SDS011;14939;43.596;1.320;2022-09-27T05:29:26;21.70;;;3.30;;
27505;SDS011;14939;43.596;1.320;2022-09-27T05:31:52;26.30;;;3.63;;
27505;SDS011;14939;43.596;1.320;2022-09-27T05:34:18;32.35;;;4.80;;
27505;SDS011;14939;43.596;1.320;2022-09-27T05:36:47;31.13;;;4.70;;
27505;SDS011;14939;43.596;1.320;2022-09-27T05:39:14;25.27;;;3.58;;
27505;SDS011;14939;43.596;1.320;2022-09-27T05:41:43;21.45;;;3.97;;
27505;SDS011;14939;43.596;1.320;2022-09-27T05:44:09;23.88;;;3.67;;
27505;SDS011;14939;43.596;1.320;2022-09-27T05:46:35;26.63;;;4.32;;
27505;SDS011;14939;43.596;1.320;2022-09-27T05:49:00;29.75;;;3.78;;
27505;SDS011;14939;43.596;1.320;2022-09-27T05:51:26;20.45;;;3.47;;
27505;SDS011;14939;43.596;1.320;2022-09-27T05:53:52;29.38;;;4.07;;
27505;SDS011;14939;43.596;1.320;2022-09-27T05:56:18;22.05;;;3.05;;
27505;SDS011;14939;43.596;1.320;2022-09-27T05:58:43;29.02;;;14.65;;
27505;SDS011;14939;43.596;1.320;2022-09-27T06:01:09;24.55;;;4.63;;
27505;SDS011;14939;43.596;1.320;2022-09-27T06:03:35;24.10;;;3.75;;
27505;SDS011;14939;43.596;1.320;2022-09-27T06:06:01;22.00;;;4.47;;
27505;SDS011;14939;43.596;1.320;2022-09-27T06:08:34;23.17;;;3.42;;
27505;SDS011;14939;43.596;1.320;2022-09-27T06:11:01;22.90;;;3.88;;
27505;SDS011;14939;43.596;1.320;2022-09-27T06:13:34;24.92;;;4.68;;
27505;SDS011;14939;43.596;1.320;2022-09-27T06:16:03;26.60;;;4.45;;
27505;SDS011;14939;43.596;1.320;2022-09-27T06:18:30;20.70;;;4.38;;
27505;SDS011;14939;43.596;1.320;2022-09-27T06:20:59;25.17;;;4.43;;
27505;SDS011;14939;43.596;1.320;2022-09-27T06:23:25;22.30;;;3.90;;
27505;SDS011;14939;43.596;1.320;2022-09-27T06:25:51;19.38;;;3.60;;
27505;SDS011;14939;43.596;1.320;2022-09-27T06:28:18;20.90;;;3.70;;
27505;SDS011;14939;43.596;1.320;2022-09-27T06:30:48;23.77;;;3.67;;
27505;SDS011;14939;43.596;1.320;2022-09-27T06:33:15;24.05;;;3.83;;
27505;SDS011;14939;43.596;1.320;2022-09-27T06:35:44;21.33;;;3.60;;
27505;SDS011;14939;43.596;1.320;2022-09-27T06:38:11;26.63;;;4.35;;
27505;SDS011;14939;43.596;1.320;2022-09-27T06:40:39;27.35;;;4.10;;
27505;SDS011;14939;43.596;1.320;2022-09-27T06:43:09;27.42;;;4.55;;
27505;SDS011;14939;43.596;1.320;2022-09-27T06:45:37;27.92;;;5.30;;
27505;SDS011;14939;43.596;1.320;2022-09-27T06:48:03;23.40;;;4.55;;
27505;SDS011;14939;43.596;1.320;2022-09-27T06:50:34;23.80;;;5.32;;
27505;SDS011;14939;43.596;1.320;2022-09-27T06:53:01;32.13;;;5.38;;
27505;SDS011;14939;43.596;1.320;2022-09-27T06:55:28;34.22;;;5.88;;
27505;SDS011;14939;43.596;1.320;2022-09-27T06:57:54;27.33;;;5.13;;
27505;SDS011;14939;43.596;1.320;2022-09-27T07:00:39;32.13;;;5.57;;
27505;SDS011;14939;43.596;1.320;2022-09-27T07:03:07;31.65;;;5.07;;
27505;SDS011;14939;43.596;1.320;2022-09-27T07:05:38;30.45;;;4.40;;
27505;SDS011;14939;43.596;1.320;2022-09-27T07:08:06;27.13;;;3.60;;
27505;SDS011;14939;43.596;1.320;2022-09-27T07:10:36;23.88;;;3.70;;
27505;SDS011;14939;43.596;1.320;2022-09-27T07:13:03;26.95;;;4.45;;
27505;SDS011;14939;43.596;1.320;2022-09-27T07:15:30;24.75;;;4.68;;
27505;SDS011;14939;43.596;1.320;2022-09-27T07:17:57;24.35;;;4.43;;
27505;SDS011;14939;43.596;1.320;2022-09-27T07:20:27;29.70;;;4.50;;
27505;SDS011;14939;43.596;1.320;2022-09-27T07:22:56;21.20;;;3.92;;
27505;SDS011;14939;43.596;1.320;2022-09-27T07:25:22;32.92;;;4.97;;
27505;SDS011;14939;43.596;1.320;2022-09-27T07:27:49;23.70;;;3.83;;
27505;SDS011;14939;43.596;1.320;2022-09-27T07:30:16;25.02;;;4.05;;
27505;SDS011;14939;43.596;1.320;2022-09-27T07:32:42;25.65;;;4.45;;
27505;SDS011;14939;43.596;1.320;2022-09-27T07:35:08;23.05;;;4.45;;
27505;SDS011;14939;43.596;1.320;2022-09-27T07:37:35;25.33;;;4.80;;
27505;SDS011;14939;43.596;1.320;2022-09-27T07:40:02;28.23;;;4.00;;
27505;SDS011;14939;43.596;1.320;2022-09-27T07:42:36;21.30;;;4.00;;
27505;SDS011;14939;43.596;1.320;2022-09-27T07:45:04;22.10;;;3.60;;
27505;SDS011;14939;43.596;1.320;2022-09-27T07:47:31;24.20;;;4.18;;
27505;SDS011;14939;43.596;1.320;2022-09-27T07:49:57;23.60;;;4.30;;
27505;SDS011;14939;43.596;1.320;2022-09-27T07:52:22;21.05;;;4.18;;
27505;SDS011;14939;43.596;1.320;2022-09-27T07:54:48;19.25;;;3.38;;
27505;SDS011;14939;43.596;1.320;2022-09-27T07:57:14;21.25;;;3.95;;
27505;SDS011;14939;43.596;1.320;2022-09-27T07:59:40;20.77;;;3.92;;
27505;SDS011;14939;43.596;1.320;2022-09-27T08:02:12;24.40;;;3.92;;
27505;SDS011;14939;43.596;1.320;2022-09-27T08:04:40;22.50;;;3.75;;
27505;SDS011;14939;43.596;1.320;2022-09-27T08:07:11;21.92;;;4.28;;
27505;SDS011;14939;43.596;1.320;2022-09-27T08:09:37;19.20;;;3.80;;
27505;SDS011;14939;43.596;1.320;2022-09-27T08:12:02;24.33;;;4.28;;
27505;SDS011;14939;43.596;1.320;2022-09-27T08:14:29;22.92;;;4.40;;
27505;SDS011;14939;43.596;1.320;2022-09-27T08:16:55;20.48;;;3.53;;
27505;SDS011;14939;43.596;1.320;2022-09-27T08:19:21;19.23;;;3.10;;
27505;SDS011;14939;43.596;1.320;2022-09-27T08:21:47;24.20;;;4.65;;
27505;SDS011;14939;43.596;1.320;2022-09-27T08:24:13;19.42;;;3.53;;
27505;SDS011;14939;43.596;1.320;2022-09-27T08:26:39;26.77;;;4.60;;
27505;SDS011;14939;43.596;1.320;2022-09-27T08:29:04;22.83;;;4.15;;
27505;SDS011;14939;43.596;1.320;2022-09-27T08:31:30;26.40;;;4.18;;
27505;SDS011;14939;43.596;1.320;2022-09-27T08:33:56;24.63;;;4.90;;
27505;SDS011;14939;43.596;1.320;2022-09-27T08:36:22;22.30;;;3.97;;
27505;SDS011;14939;43.596;1.320;2022-09-27T08:38:48;34.33;;;4.88;;
27505;SDS011;14939;43.596;1.320;2022-09-27T08:52:16;27.50;;;4.68;;
27505;SDS011;14939;43.596;1.320;2022-09-27T08:55:03;33.47;;;5.35;;
27505;SDS011;14939;43.596;1.320;2022-09-27T08:57:38;27.80;;;4.03;;
27505;SDS011;14939;43.596;1.320;2022-09-27T09:00:09;32.75;;;4.78;;
27505;SDS011;14939;43.596;1.320;2022-09-27T09:02:36;31.87;;;5.37;;
27505;SDS011;14939;43.596;1.320;2022-09-27T09:16:19;26.30;;;6.10;;
27505;SDS011;14939;43.596;1.320;2022-09-27T09:24:17;27.25;;;5.15;;
27505;SDS011;14939;43.596;1.320;2022-09-27T09:32:33;25.52;;;4.57;;
27505;SDS011;14939;43.596;1.320;2022-09-27T09:35:14;26.15;;;4.15;;
27505;SDS011;14939;43.596;1.320;2022-09-27T09:37:55;23.88;;;3.92;;
27505;SDS011;14939;43.596;1.320;2022-09-27T09:45:35;24.42;;;4.00;;
27505;SDS011;14939;43.596;1.320;2022-09-27T09:48:14;28.15;;;3.80;;
27505;SDS011;14939;43.596;1.320;2022-09-27T09:50:54;22.13;;;4.45;;
27505;SDS011;14939;43.596;1.320;2022-09-27T09:53:43;20.98;;;4.22;;
27505;SDS011;14939;43.596;1.320;2022-09-27T09:56:24;22.45;;;3.67;;
27505;SDS011;14939;43.596;1.320;2022-09-27T10:01:40;16.60;;;2.80;;
27505;SDS011;14939;43.596;1.320;2022-09-27T10:04:11;17.88;;;3.00;;
27505;SDS011;14939;43.596;1.320;2022-09-27T10:06:44;24.33;;;3.33;;
27505;SDS011;14939;43.596;1.320;2022-09-27T10:09:10;16.98;;;3.22;;
27505;SDS011;14939;43.596;1.320;2022-09-27T10:11:41;18.30;;;2.90;;
27505;SDS011;14939;43.596;1.320;2022-09-27T10:14:09;22.10;;;4.00;;
27505;SDS011;14939;43.596;1.320;2022-09-27T10:16:38;14.45;;;3.10;;
27505;SDS011;14939;43.596;1.320;2022-09-27T10:19:07;14.00;;;2.83;;
27505;SDS011;14939;43.596;1.320;2022-09-27T10:21:34;13.98;;;3.03;;
27505;SDS011;14939;43.596;1.320;2022-09-27T10:24:07;15.57;;;2.58;;
27505;SDS011;14939;43.596;1.320;2022-09-27T10:26:44;12.70;;;2.40;;
27505;SDS011;14939;43.596;1.320;2022-09-27T10:29:15;14.05;;;2.50;;
27505;SDS011;14939;43.596;1.320;2022-09-27T10:31:49;12.13;;;2.47;;
27505;SDS011;14939;43.596;1.320;2022-09-27T10:34:23;17.20;;;2.83;;
27505;SDS011;14939;43.596;1.320;2022-09-27T10:37:04;11.70;;;2.33;;
27505;SDS011;14939;43.596;1.320;2022-09-27T10:39:30;12.75;;;2.45;;
27505;SDS011;14939;43.596;1.320;2022-09-27T10:41:56;16.10;;;2.40;;
27505;SDS011;14939;43.596;1.320;2022-09-27T10:44:25;15.23;;;2.55;;
27505;SDS011;14939;43.596;1.320;2022-09-27T10:46:57;17.00;;;2.63;;
27505;SDS011;14939;43.596;1.320;2022-09-27T10:51:58;20.92;;;2.78;;
27505;SDS011;14939;43.596;1.320;2022-09-27T10:54:31;16.52;;;2.55;;
27505;SDS011;14939;43.596;1.320;2022-09-27T10:59:28;11.80;;;2.92;;
27505;SDS011;14939;43.596;1.320;2022-09-27T11:01:58;17.70;;;3.00;;
27505;SDS011;14939;43.596;1.320;2022-09-27T11:04:36;14.18;;;2.72;;
27505;SDS011;14939;43.596;1.320;2022-09-27T11:07:20;14.30;;;2.80;;
27505;SDS011;14939;43.596;1.320;2022-09-27T11:09:49;14.55;;;2.30;;
27505;SDS011;14939;43.596;1.320;2022-09-27T11:12:20;12.43;;;2.42;;
27505;SDS011;14939;43.596;1.320;2022-09-27T11:14:51;12.45;;;2.17;;
27505;SDS011;14939;43.596;1.320;2022-09-27T11:17:18;13.30;;;2.30;;
27505;SDS011;14939;43.596;1.320;2022-09-27T11:31:16;11.30;;;2.00;;
27505;SDS011;14939;43.596;1.320;2022-09-27T11:33:44;9.68;;;2.22;;
27505;SDS011;14939;43.596;1.320;2022-09-27T11:39:10;10.25;;;2.03;;
27505;SDS011;14939;43.596;1.320;2022-09-27T11:41:46;12.27;;;2.38;;
27505;SDS011;14939;43.596;1.320;2022-09-27T11:55:50;12.32;;;2.08;;
27505;SDS011;14939;43.596;1.320;2022-09-27T12:09:35;7.00;;;1.40;;
27505;SDS011;14939;43.596;1.320;2022-09-27T12:12:09;11.18;;;1.63;;
27505;SDS011;14939;43.596;1.320;2022-09-27T12:15:13;12.05;;;1.83;;
27505;SDS011;14939;43.596;1.320;2022-09-27T12:17:39;8.25;;;1.50;;
27505;SDS011;14939;43.596;1.320;2022-09-27T12:20:09;8.93;;;1.77;;
27505;SDS011;14939;43.596;1.320;2022-09-27T12:25:21;10.70;;;1.60;;
27505;SDS011;14939;43.596;1.320;2022-09-27T12:27:51;10.25;;;2.38;;
27505;SDS011;14939;43.596;1.320;2022-09-27T12:30:31;8.32;;;1.90;;
27505;SDS011;14939;43.596;1.320;2022-09-27T12:33:06;8.55;;;1.63;;
27505;SDS011;14939;43.596;1.320;2022-09-27T12:35:53;7.25;;;1.50;;
27505;SDS011;14939;43.596;1.320;2022-09-27T12:38:39;10.23;;;1.77;;
27505;SDS011;14939;43.596;1.320;2022-09-27T12:41:11;7.90;;;1.27;;
27505;SDS011;14939;43.596;1.320;2022-09-27T12:43:43;9.27;;;1.65;;
27505;SDS011;14939;43.596;1.320;2022-09-27T12:46:23;8.93;;;1.50;;
27505;SDS011;14939;43.596;1.320;2022-09-27T12:51:59;6.72;;;1.45;;
27505;SDS011;14939;43.596;1.320;2022-09-27T12:57:28;10.48;;;1.40;;
27505;SDS011;14939;43.596;1.320;2022-09-27T13:13:43;7.80;;;1.50;;
27505;SDS011;14939;43.596;1.320;2022-09-27T13:16:09;9.65;;;1.40;;
27505;SDS011;14939;43.596;1.320;2022-09-27T13:18:50;7.40;;;1.65;;
27505;SDS011;14939;43.596;1.320;2022-09-27T13:24:28;8.75;;;1.52;;
27505;SDS011;14939;43.596;1.320;2022-09-27T13:32:33;9.30;;;1.70;;
27505;SDS011;14939;43.596;1.320;2022-09-27T13:35:20;9.05;;;1.52;;
27505;SDS011;14939;43.596;1.320;2022-09-27T13:37:55;8.77;;;1.73;;
27505;SDS011;14939;43.596;1.320;2022-09-27T13:45:33;12.57;;;2.05;;
27505;SDS011;14939;43.596;1.320;2022-09-27T13:48:11;6.68;;;1.52;;
27505;SDS011;14939;43.596;1.320;2022-09-27T13:53:34;10.18;;;2.00;;
27505;SDS011;14939;43.596;1.320;2022-09-27T13:56:03;10.93;;;2.10;;
27505;SDS011;14939;43.596;1.320;2022-09-27T13:58:34;8.40;;;1.77;;
27505;SDS011;14939;43.596;1.320;2022-09-27T14:01:14;10.65;;;1.73;;
27505;SDS011;14939;43.596;1.320;2022-09-27T14:03:52;7.35;;;1.83;;
27505;SDS011;14939;43.596;1.320;2022-09-27T14:06:43;11.55;;;2.08;;
27505;SDS011;14939;43.596;1.320;2022-09-27T14:09:20;9.98;;;2.17;;
27505;SDS011;14939;43.596;1.320;2022-09-27T14:11:55;7.78;;;1.83;;
27505;SDS011;14939;43.596;1.320;2022-09-27T14:14:28;11.70;;;2.28;;
27505;SDS011;14939;43.596;1.320;2022-09-27T14:17:00;9.18;;;2.20;;
27505;SDS011;14939;43.596;1.320;2022-09-27T14:19:26;9.32;;;2.10;;
27505;SDS011;14939;43.596;1.320;2022-09-27T14:21:53;10.65;;;2.15;;
27505;SDS011;14939;43.596;1.320;2022-09-27T14:24:27;12.15;;;2.15;;
27505;SDS011;14939;43.596;1.320;2022-09-27T14:29:38;11.40;;;2.45;;
27505;SDS011;14939;43.596;1.320;2022-09-27T14:32:10;9.93;;;1.85;;
27505;SDS011;14939;43.596;1.320;2022-09-27T14:34:38;8.77;;;1.95;;
27505;SDS011;14939;43.596;1.320;2022-09-27T14:37:04;12.13;;;2.28;;
27505;SDS011;14939;43.596;1.320;2022-09-27T14:39:53;9.05;;;2.05;;
27505;SDS011;14939;43.596;1.320;2022-09-27T14:42:20;12.77;;;2.45;;
27505;SDS011;14939;43.596;1.320;2022-09-27T14:44:49;11.73;;;2.50;;
27505;SDS011;14939;43.596;1.320;2022-09-27T14:47:17;13.20;;;2.28;;
27505;SDS011;14939;43.596;1.320;2022-09-27T14:49:53;13.10;;;2.40;;
27505;SDS011;14939;43.596;1.320;2022-09-27T14:52:25;11.73;;;2.33;;
27505;SDS011;14939;43.596;1.320;2022-09-27T14:55:37;12.55;;;2.40;;
27505;SDS011;14939;43.596;1.320;2022-09-27T14:57:46;9.00;;;2.22;;
27505;SDS011;14939;43.596;1.320;2022-09-27T15:02:45;8.15;;;1.85;;
27505;SDS011;14939;43.596;1.320;2022-09-27T15:05:15;13.25;;;1.85;;
27505;SDS011;14939;43.596;1.320;2022-09-27T15:07:44;7.68;;;2.00;;
27505;SDS011;14939;43.596;1.320;2022-09-27T15:10:12;8.35;;;1.77;;
27505;SDS011;14939;43.596;1.320;2022-09-27T15:12:48;7.07;;;1.45;;
27505;SDS011;14939;43.596;1.320;2022-09-27T15:15:18;8.10;;;1.30;;
27505;SDS011;14939;43.596;1.320;2022-09-27T15:17:50;8.98;;;1.50;;
27505;SDS011;14939;43.596;1.320;2022-09-27T15:20:37;4.65;;;1.02;;
27505;SDS011;14939;43.596;1.320;2022-09-27T15:23:23;7.85;;;1.42;;
27505;SDS011;14939;43.596;1.320;2022-09-27T15:25:59;7.72;;;1.20;;
27505;SDS011;14939;43.596;1.320;2022-09-27T15:28:43;4.35;;;1.17;;
27505;SDS011;14939;43.596;1.320;2022-09-27T15:31:10;5.97;;;1.20;;
27505;SDS011;14939;43.596;1.320;2022-09-27T15:33:37;4.85;;;1.50;;
27505;SDS011;14939;43.596;1.320;2022-09-27T15:36:05;7.32;;;1.50;;
27505;SDS011;14939;43.596;1.320;2022-09-27T15:38:39;4.32;;;0.73;;
27505;SDS011;14939;43.596;1.320;2022-09-27T15:41:14;4.55;;;1.17;;
27505;SDS011;14939;43.596;1.320;2022-09-27T15:51:45;6.03;;;1.33;;
27505;SDS011;14939;43.596;1.320;2022-09-27T15:54:11;5.85;;;1.40;;
27505;SDS011;14939;43.596;1.320;2022-09-27T15:56:40;5.95;;;1.38;;
27505;SDS011;14939;43.596;1.320;2022-09-27T15:59:08;5.22;;;1.13;;
27505;SDS011;14939;43.596;1.320;2022-09-27T16:01:44;6.40;;;1.60;;
27505;SDS011;14939;43.596;1.320;2022-09-27T16:04:10;9.10;;;1.60;;
27505;SDS011;14939;43.596;1.320;2022-09-27T16:06:35;9.55;;;1.75;;
27505;SDS011;14939;43.596;1.320;2022-09-27T16:09:02;5.32;;;1.38;;
27505;SDS011;14939;43.596;1.320;2022-09-27T16:11:28;9.75;;;1.80;;
27505;SDS011;14939;43.596;1.320;2022-09-27T16:13:53;7.65;;;1.73;;
27505;SDS011;14939;43.596;1.320;2022-09-27T16:16:20;6.30;;;1.50;;
27505;SDS011;14939;43.596;1.320;2022-09-27T16:18:46;10.10;;;1.75;;
27505;SDS011;14939;43.596;1.320;2022-09-27T16:21:12;7.68;;;1.85;;
27505;SDS011;14939;43.596;1.320;2022-09-27T16:23:38;8.55;;;2.10;;
27505;SDS011;14939;43.596;1.320;2022-09-27T16:26:05;9.15;;;2.20;;
27505;SDS011;14939;43.596;1.320;2022-09-27T16:28:31;7.28;;;1.77;;
27505;SDS011;14939;43.596;1.320;2022-09-27T16:31:04;12.32;;;1.58;;
27505;SDS011;14939;43.596;1.320;2022-09-27T16:33:31;6.50;;;1.73;;
27505;SDS011;14939;43.596;1.320;2022-09-27T16:35:58;7.50;;;1.98;;
27505;SDS011;14939;43.596;1.320;2022-09-27T16:38:27;8.48;;;1.63;;
27505;SDS011;14939;43.596;1.320;2022-09-27T16:40:58;9.07;;;2.45;;
27505;SDS011;14939;43.596;1.320;2022-09-27T16:43:25;14.25;;;2.50;;
27505;SDS011;14939;43.596;1.320;2022-09-27T16:45:52;13.75;;;2.72;;
27505;SDS011;14939;43.596;1.320;2022-09-27T16:48:18;14.02;;;2.20;;
27505;SDS011;14939;43.596;1.320;2022-09-27T16:50:44;10.00;;;2.40;;
27505;SDS011;14939;43.596;1.320;2022-09-27T16:53:28;11.45;;;2.33;;
27505;SDS011;14939;43.596;1.320;2022-09-27T16:55:58;12.63;;;1.98;;
27505;SDS011;14939;43.596;1.320;2022-09-27T16:58:24;12.52;;;2.20;;
27505;SDS011;14939;43.596;1.320;2022-09-27T17:00:50;9.10;;;1.85;;
27505;SDS011;14939;43.596;1.320;2022-09-27T17:03:16;13.85;;;3.78;;
27505;SDS011;14939;43.596;1.320;2022-09-27T17:05:42;21.10;;;4.13;;
27505;SDS011;14939;43.596;1.320;2022-09-27T17:08:08;16.40;;;4.10;;
27505;SDS011;14939;43.596;1.320;2022-09-27T17:10:34;14.93;;;3.00;;
27505;SDS011;14939;43.596;1.320;2022-09-27T17:13:02;17.55;;;2.97;;
27505;SDS011;14939;43.596;1.320;2022-09-27T17:15:28;22.98;;;3.10;;
27505;SDS011;14939;43.596;1.320;2022-09-27T17:17:54;19.25;;;3.17;;
27505;SDS011;14939;43.596;1.320;2022-09-27T17:20:19;17.40;;;2.85;;
27505;SDS011;14939;43.596;1.320;2022-09-27T17:22:45;19.88;;;3.63;;
27505;SDS011;14939;43.596;1.320;2022-09-27T17:25:10;20.35;;;3.50;;
27505;SDS011;14939;43.596;1.320;2022-09-27T17:27:36;24.38;;;4.22;;
27505;SDS011;14939;43.596;1.320;2022-09-27T17:30:02;24.35;;;3.75;;
27505;SDS011;14939;43.596;1.320;2022-09-27T17:32:28;22.38;;;3.35;;
27505;SDS011;14939;43.596;1.320;2022-09-27T17:34:54;23.58;;;3.30;;
27505;SDS011;14939;43.596;1.320;2022-09-27T17:37:22;28.42;;;3.78;;
27505;SDS011;14939;43.596;1.320;2022-09-27T17:39:48;21.48;;;3.00;;
27505;SDS011;14939;43.596;1.320;2022-09-27T17:42:14;17.83;;;3.00;;
27505;SDS011;14939;43.596;1.320;2022-09-27T17:44:42;19.75;;;3.10;;
27505;SDS011;14939;43.596;1.320;2022-09-27T17:47:08;21.20;;;3.97;;
27505;SDS011;14939;43.596;1.320;2022-09-27T17:49:53;23.90;;;3.22;;
27505;SDS011;14939;43.596;1.320;2022-09-27T17:52:37;23.60;;;3.83;;
27505;SDS011;14939;43.596;1.320;2022-09-27T17:55:02;20.08;;;3.92;;
27505;SDS011;14939;43.596;1.320;2022-09-27T17:57:28;22.10;;;3.53;;
27505;SDS011;14939;43.596;1.320;2022-09-27T17:59:55;23.92;;;3.88;;
27505;SDS011;14939;43.596;1.320;2022-09-27T18:02:21;22.42;;;3.80;;
27505;SDS011;14939;43.596;1.320;2022-09-27T18:04:47;23.33;;;3.90;;
27505;SDS011;14939;43.596;1.320;2022-09-27T18:07:13;26.40;;;4.15;;